Time;durP1;ratioP1;P1;durP2;ratioP2;P2;SDS_P1;SDS_P2;PMS_P1;PMS_P2;Temp;Humidity;BMP_temperature;BMP_pressure;BME280_temperature;BME280_humidity;BME280_pressure;Samples;Min_cycle;Max_cycle;Signal;HPM_P1;HPM_P2
2022/03/15 00:00:44;;;;;;;46.30;21.08;;;;;;;;;;4969130;28;20433;-62
2022/03/15 00:03:10;;;;;;;53.42;21.15;;;;;;;;;;4970161;28;20466;-62
2022/03/15 00:05:35;;;;;;;59.33;19.95;;;;;;;;;;4970723;28;20463;-62
2022/03/15 00:08:01;;;;;;;56.72;19.67;;;;;;;;;;4969013;28;20151;-61
2022/03/15 00:10:27;;;;;;;49.05;20.48;;;;;;;;;;4970015;28;20368;-62
2022/03/15 00:12:56;;;;;;;57.33;19.30;;;;;;;;;;4970376;28;20408;-62
2022/03/15 00:15:22;;;;;;;47.70;19.00;;;;;;;;;;4968931;28;20352;-62
2022/03/15 00:17:47;;;;;;;57.33;19.20;;;;;;;;;;4969323;28;20026;-62
2022/03/15 00:20:15;;;;;;;44.20;18.52;;;;;;;;;;4969197;28;20085;-62
2022/03/15 00:22:41;;;;;;;43.13;17.98;;;;;;;;;;4969110;28;20336;-62
2022/03/15 00:25:09;;;;;;;46.17;18.90;;;;;;;;;;4968882;28;20444;-61
2022/03/15 00:27:35;;;;;;;51.45;19.60;;;;;;;;;;4970033;28;20371;-61
2022/03/15 00:30:01;;;;;;;53.28;17.73;;;;;;;;;;4969358;28;20393;-62
2022/03/15 00:32:26;;;;;;;53.97;18.70;;;;;;;;;;4969331;28;20379;-61
2022/03/15 00:34:52;;;;;;;49.90;19.15;;;;;;;;;;4968359;28;20436;-61
2022/03/15 00:37:18;;;;;;;52.47;20.17;;;;;;;;;;4968970;28;20429;-61
2022/03/15 00:39:44;;;;;;;57.83;20.85;;;;;;;;;;4968975;28;20472;-61
2022/03/15 00:42:10;;;;;;;49.67;19.10;;;;;;;;;;4968769;28;20376;-61
2022/03/15 00:44:36;;;;;;;53.60;18.90;;;;;;;;;;4968855;28;20310;-61
2022/03/15 00:47:01;;;;;;;46.90;19.02;;;;;;;;;;4970150;28;20395;-62
2022/03/15 00:49:27;;;;;;;52.90;19.45;;;;;;;;;;4972842;28;20427;-61
2022/03/15 00:51:53;;;;;;;54.85;19.33;;;;;;;;;;4972070;28;20479;-61
2022/03/15 00:54:18;;;;;;;51.55;20.05;;;;;;;;;;4972605;28;20372;-61
2022/03/15 00:56:44;;;;;;;60.83;19.35;;;;;;;;;;4971986;28;20336;-62
2022/03/15 00:59:09;;;;;;;52.13;18.58;;;;;;;;;;4972982;28;20468;-62
2022/03/15 01:01:36;;;;;;;44.85;19.10;;;;;;;;;;4978680;28;20423;-61
2022/03/15 01:04:02;;;;;;;53.17;18.40;;;;;;;;;;4973869;28;20333;-61
2022/03/15 01:06:27;;;;;;;47.45;18.13;;;;;;;;;;4971942;28;20048;-61
2022/03/15 01:08:53;;;;;;;41.78;16.65;;;;;;;;;;4971663;28;20055;-61
2022/03/15 01:11:18;;;;;;;50.03;17.73;;;;;;;;;;4971975;28;20053;-61
2022/03/15 01:13:43;;;;;;;49.42;17.90;;;;;;;;;;4973876;28;20443;-61
2022/03/15 01:16:09;;;;;;;53.35;18.45;;;;;;;;;;4971741;28;20445;-61
2022/03/15 01:18:35;;;;;;;45.50;17.77;;;;;;;;;;4971686;28;20464;-61
2022/03/15 01:21:01;;;;;;;52.72;18.20;;;;;;;;;;4971551;28;20402;-61
2022/03/15 01:23:27;;;;;;;47.50;17.52;;;;;;;;;;4971805;28;20419;-61
2022/03/15 01:25:54;;;;;;;41.25;16.23;;;;;;;;;;4972803;28;20301;-61
2022/03/15 01:28:20;;;;;;;39.65;17.60;;;;;;;;;;4971927;28;20329;-63
2022/03/15 01:30:45;;;;;;;50.03;18.30;;;;;;;;;;4971552;28;20409;-62
2022/03/15 01:33:11;;;;;;;51.42;18.13;;;;;;;;;;4972181;28;20072;-62
2022/03/15 01:35:36;;;;;;;41.97;17.08;;;;;;;;;;4964400;28;20504;-62
2022/03/15 01:38:02;;;;;;;44.75;18.77;;;;;;;;;;4972001;28;20420;-61
2022/03/15 01:40:27;;;;;;;45.17;17.80;;;;;;;;;;4971398;28;20432;-61
2022/03/15 01:42:52;;;;;;;41.45;17.65;;;;;;;;;;4972198;28;20396;-62
2022/03/15 01:45:18;;;;;;;53.53;17.23;;;;;;;;;;4971804;28;20049;-61
2022/03/15 01:47:43;;;;;;;45.42;20.33;;;;;;;;;;4970876;28;20547;-61
2022/03/15 01:50:09;;;;;;;44.92;18.35;;;;;;;;;;4971845;28;20543;-62
2022/03/15 01:52:35;;;;;;;45.03;17.80;;;;;;;;;;4971393;28;20444;-61
2022/03/15 01:55:00;;;;;;;45.22;17.48;;;;;;;;;;4971209;28;20519;-61
2022/03/15 01:57:25;;;;;;;49.58;17.17;;;;;;;;;;4971783;28;20448;-62
2022/03/15 01:59:51;;;;;;;43.83;16.88;;;;;;;;;;4970572;28;20399;-61
2022/03/15 02:02:17;;;;;;;57.47;18.48;;;;;;;;;;4971747;28;20136;-62
2022/03/15 02:04:42;;;;;;;48.05;17.48;;;;;;;;;;4953629;28;20367;-62
2022/03/15 02:07:09;;;;;;;41.75;17.67;;;;;;;;;;4971198;28;20075;-61
2022/03/15 02:09:35;;;;;;;43.40;16.08;;;;;;;;;;4970945;28;20448;-62
2022/03/15 02:12:01;;;;;;;53.33;17.92;;;;;;;;;;4970880;28;20433;-61
2022/03/15 02:14:27;;;;;;;43.47;16.33;;;;;;;;;;4971257;28;20076;-62
2022/03/15 02:16:53;;;;;;;46.13;17.10;;;;;;;;;;4970851;28;20513;-61
2022/03/15 02:19:18;;;;;;;41.65;17.02;;;;;;;;;;4971156;28;20105;-61
2022/03/15 02:21:43;;;;;;;46.83;17.50;;;;;;;;;;4971172;28;20429;-61
2022/03/15 02:24:09;;;;;;;46.42;17.38;;;;;;;;;;4971780;28;20108;-61
2022/03/15 02:26:34;;;;;;;44.83;17.13;;;;;;;;;;4970478;28;20316;-61
2022/03/15 02:28:59;;;;;;;47.20;17.98;;;;;;;;;;4971099;28;20491;-62
2022/03/15 02:31:25;;;;;;;47.03;17.88;;;;;;;;;;4970810;28;20463;-61
2022/03/15 02:33:50;;;;;;;46.33;17.55;;;;;;;;;;4971670;28;20452;-61
2022/03/15 02:36:16;;;;;;;48.70;17.92;;;;;;;;;;4970589;28;20099;-62
2022/03/15 02:38:45;;;;;;;54.25;19.02;;;;;;;;;;4952528;28;20322;-61
2022/03/15 02:41:11;;;;;;;44.17;16.48;;;;;;;;;;4970876;28;20425;-62
2022/03/15 02:43:37;;;;;;;46.20;17.42;;;;;;;;;;4970647;28;20360;-62
2022/03/15 02:46:02;;;;;;;45.13;16.45;;;;;;;;;;4969996;28;20476;-62
2022/03/15 02:48:27;;;;;;;41.60;17.55;;;;;;;;;;4969734;28;20065;-62
2022/03/15 02:50:53;;;;;;;53.97;17.70;;;;;;;;;;4970329;28;20087;-63
2022/03/15 02:53:19;;;;;;;49.38;17.77;;;;;;;;;;4970379;28;20326;-62
2022/03/15 02:55:46;;;;;;;48.95;18.67;;;;;;;;;;4970009;28;20056;-62
2022/03/15 02:58:12;;;;;;;47.20;18.70;;;;;;;;;;4969864;28;20399;-62
2022/03/15 03:00:37;;;;;;;61.47;19.73;;;;;;;;;;4970009;28;20025;-61
2022/03/15 03:03:02;;;;;;;53.15;18.75;;;;;;;;;;4970024;28;20433;-62
2022/03/15 03:05:28;;;;;;;43.83;17.63;;;;;;;;;;4970174;28;20383;-62
2022/03/15 03:07:54;;;;;;;41.40;16.08;;;;;;;;;;4970113;28;20364;-61
2022/03/15 03:10:20;;;;;;;55.28;17.52;;;;;;;;;;4968675;28;20415;-61
2022/03/15 03:12:47;;;;;;;46.03;16.98;;;;;;;;;;4970304;28;20029;-61
2022/03/15 03:15:12;;;;;;;44.67;17.88;;;;;;;;;;4969437;28;20449;-61
2022/03/15 03:17:41;;;;;;;50.55;18.30;;;;;;;;;;4969306;28;20440;-61
2022/03/15 03:20:13;;;;;;;52.13;18.55;;;;;;;;;;4969524;28;20345;-61
2022/03/15 03:22:39;;;;;;;54.03;19.88;;;;;;;;;;4969228;28;20052;-62
2022/03/15 03:25:05;;;;;;;49.28;17.67;;;;;;;;;;4969366;28;20325;-61
2022/03/15 03:27:31;;;;;;;50.35;17.73;;;;;;;;;;4971108;28;20411;-61
2022/03/15 03:29:58;;;;;;;51.17;18.20;;;;;;;;;;4969728;28;20422;-62
2022/03/15 03:32:23;;;;;;;52.45;18.88;;;;;;;;;;4969551;28;20427;-61
2022/03/15 03:34:49;;;;;;;51.35;19.65;;;;;;;;;;4970466;28;20337;-62
2022/03/15 03:37:14;;;;;;;50.20;19.75;;;;;;;;;;4969872;28;20407;-61
2022/03/15 03:39:40;;;;;;;48.40;18.10;;;;;;;;;;4969359;28;20334;-61
2022/03/15 03:42:05;;;;;;;53.85;18.00;;;;;;;;;;4970006;28;20029;-61
2022/03/15 03:44:33;;;;;;;60.25;19.75;;;;;;;;;;4970259;28;20375;-62
2022/03/15 03:46:58;;;;;;;46.83;16.80;;;;;;;;;;4969012;28;20037;-61
2022/03/15 03:49:23;;;;;;;55.65;18.27;;;;;;;;;;4969201;28;20091;-62
2022/03/15 03:51:49;;;;;;;48.80;18.33;;;;;;;;;;4968718;28;20583;-61
2022/03/15 03:54:14;;;;;;;48.65;18.40;;;;;;;;;;4969874;28;20395;-62
2022/03/15 03:56:40;;;;;;;51.20;19.13;;;;;;;;;;4969402;28;20356;-62
2022/03/15 03:59:05;;;;;;;49.60;18.45;;;;;;;;;;4969175;28;20372;-61
2022/03/15 04:01:30;;;;;;;55.85;17.77;;;;;;;;;;4969244;28;20371;-62
2022/03/15 04:03:59;;;;;;;62.92;18.60;;;;;;;;;;4970052;28;20444;-61
2022/03/15 04:06:24;;;;;;;46.80;18.65;;;;;;;;;;4968992;28;20037;-62
2022/03/15 04:08:54;;;;;;;47.17;17.20;;;;;;;;;;4968889;28;20444;-61
2022/03/15 04:11:19;;;;;;;48.58;17.90;;;;;;;;;;4969571;28;20051;-62
2022/03/15 04:13:45;;;;;;;48.30;18.75;;;;;;;;;;4968839;28;20442;-62
2022/03/15 04:16:10;;;;;;;52.22;19.23;;;;;;;;;;4968946;28;20526;-61
2022/03/15 04:18:35;;;;;;;40.78;16.67;;;;;;;;;;4969693;28;20399;-62
2022/03/15 04:21:01;;;;;;;53.55;18.13;;;;;;;;;;4969156;28;20425;-63
2022/03/15 04:23:26;;;;;;;62.20;18.33;;;;;;;;;;4972568;28;20460;-61
2022/03/15 04:25:52;;;;;;;53.00;19.02;;;;;;;;;;4972892;28;20494;-62
2022/03/15 04:28:17;;;;;;;45.85;17.08;;;;;;;;;;4972713;28;20033;-62
2022/03/15 04:30:42;;;;;;;52.40;18.80;;;;;;;;;;4972642;28;20464;-62
2022/03/15 04:33:08;;;;;;;49.83;17.92;;;;;;;;;;4972311;28;20393;-62
2022/03/15 04:35:34;;;;;;;60.15;18.98;;;;;;;;;;4972729;28;20468;-62
2022/03/15 04:38:00;;;;;;;46.08;17.15;;;;;;;;;;4972410;28;20477;-61
2022/03/15 04:40:25;;;;;;;50.17;18.25;;;;;;;;;;4972511;28;20465;-62
2022/03/15 04:42:52;;;;;;;53.38;18.65;;;;;;;;;;4972943;28;20437;-62
2022/03/15 04:45:18;;;;;;;56.03;18.27;;;;;;;;;;4972732;28;20052;-62
2022/03/15 04:47:43;;;;;;;45.65;17.00;;;;;;;;;;4972663;28;20434;-61
2022/03/15 04:50:10;;;;;;;55.63;20.95;;;;;;;;;;4972146;28;20553;-61
2022/03/15 04:52:35;;;;;;;42.88;17.17;;;;;;;;;;4973260;28;20308;-62
2022/03/15 04:55:02;;;;;;;50.83;18.63;;;;;;;;;;4971918;28;20336;-61
2022/03/15 04:57:28;;;;;;;48.83;18.42;;;;;;;;;;4972391;28;20445;-61
2022/03/15 04:59:53;;;;;;;45.78;17.02;;;;;;;;;;4971989;28;20060;-61
2022/03/15 05:02:18;;;;;;;44.90;18.98;;;;;;;;;;4971935;28;20520;-62
2022/03/15 05:04:44;;;;;;;46.28;18.40;;;;;;;;;;4972037;28;20440;-62
2022/03/15 05:07:09;;;;;;;53.80;18.77;;;;;;;;;;4971696;28;20487;-61
2022/03/15 05:09:34;;;;;;;45.55;17.77;;;;;;;;;;4972768;28;20053;-61
2022/03/15 05:12:00;;;;;;;50.75;17.88;;;;;;;;;;4971509;28;20423;-61
2022/03/15 05:14:25;;;;;;;50.05;17.38;;;;;;;;;;4972500;28;20487;-61
2022/03/15 05:16:50;;;;;;;46.15;17.05;;;;;;;;;;4972246;28;20522;-61
2022/03/15 05:19:16;;;;;;;46.45;16.40;;;;;;;;;;4972861;28;20486;-61
2022/03/15 05:21:41;;;;;;;51.75;18.27;;;;;;;;;;4971454;28;20416;-62
2022/03/15 05:24:07;;;;;;;49.67;16.85;;;;;;;;;;4971947;28;20321;-61
2022/03/15 05:26:32;;;;;;;46.13;17.17;;;;;;;;;;4971917;28;20471;-62
2022/03/15 05:28:57;;;;;;;46.63;16.85;;;;;;;;;;4972639;28;20108;-61
2022/03/15 05:31:26;;;;;;;50.50;17.85;;;;;;;;;;4972382;28;20409;-61
2022/03/15 05:33:51;;;;;;;45.85;17.10;;;;;;;;;;4970387;28;20587;-61
2022/03/15 05:36:17;;;;;;;45.42;17.27;;;;;;;;;;4971906;28;20420;-62
2022/03/15 05:38:42;;;;;;;50.55;16.38;;;;;;;;;;4971793;28;20380;-63
2022/03/15 05:41:08;;;;;;;41.35;15.27;;;;;;;;;;4971303;28;20425;-62
2022/03/15 05:43:37;;;;;;;41.20;16.88;;;;;;;;;;4971827;28;20391;-62
2022/03/15 05:46:03;;;;;;;45.15;16.75;;;;;;;;;;4971870;28;20395;-63
2022/03/15 05:48:29;;;;;;;49.67;17.90;;;;;;;;;;4971077;28;20483;-62
2022/03/15 05:50:54;;;;;;;47.33;18.00;;;;;;;;;;4971299;28;20483;-62
2022/03/15 05:53:19;;;;;;;45.60;17.02;;;;;;;;;;4971191;28;20464;-61
2022/03/15 05:55:45;;;;;;;55.22;19.25;;;;;;;;;;4973073;28;20419;-61
2022/03/15 05:58:10;;;;;;;46.70;16.98;;;;;;;;;;4971539;28;20353;-61
2022/03/15 06:00:36;;;;;;;41.22;16.40;;;;;;;;;;4971478;28;20464;-63
2022/03/15 06:03:02;;;;;;;45.13;17.70;;;;;;;;;;4970504;28;20400;-62
2022/03/15 06:05:27;;;;;;;49.45;18.48;;;;;;;;;;4971065;28;20037;-62
2022/03/15 06:07:53;;;;;;;50.65;17.98;;;;;;;;;;4970390;28;20391;-62
2022/03/15 06:10:22;;;;;;;51.35;18.13;;;;;;;;;;4970833;28;20453;-61
2022/03/15 06:12:51;;;;;;;43.53;18.63;;;;;;;;;;4970626;28;20445;-61
2022/03/15 06:15:17;;;;;;;51.75;19.00;;;;;;;;;;4972406;28;20467;-61
2022/03/15 06:17:48;;;;;;;50.42;17.80;;;;;;;;;;4970910;28;20448;-61
2022/03/15 06:20:15;;;;;;;53.90;19.20;;;;;;;;;;4970205;28;20033;-62
2022/03/15 06:22:40;;;;;;;58.63;18.45;;;;;;;;;;4970862;28;20432;-61
2022/03/15 06:25:06;;;;;;;43.60;17.20;;;;;;;;;;4971076;28;20455;-61
2022/03/15 06:27:32;;;;;;;45.97;17.58;;;;;;;;;;4971397;28;20428;-61
2022/03/15 06:29:57;;;;;;;47.80;19.88;;;;;;;;;;4970761;28;20421;-62
2022/03/15 06:32:23;;;;;;;57.80;19.42;;;;;;;;;;4970229;28;20405;-61
2022/03/15 06:34:48;;;;;;;48.55;16.63;;;;;;;;;;4970229;28;20440;-62
2022/03/15 06:37:14;;;;;;;54.08;18.08;;;;;;;;;;4970218;28;20326;-61
2022/03/15 06:39:39;;;;;;;44.28;16.98;;;;;;;;;;4970777;28;20428;-62
2022/03/15 06:42:06;;;;;;;48.90;18.33;;;;;;;;;;4970772;28;20471;-62
2022/03/15 06:44:31;;;;;;;50.20;18.60;;;;;;;;;;4970652;28;20048;-62
2022/03/15 06:46:57;;;;;;;41.35;16.60;;;;;;;;;;4969834;28;20456;-63
2022/03/15 06:49:22;;;;;;;46.58;18.10;;;;;;;;;;4969822;28;20477;-62
2022/03/15 06:51:48;;;;;;;44.83;16.35;;;;;;;;;;4969589;28;20441;-62
2022/03/15 06:54:13;;;;;;;46.00;18.73;;;;;;;;;;4970139;28;20444;-63
2022/03/15 06:56:40;;;;;;;43.20;17.42;;;;;;;;;;4970392;28;20037;-62
2022/03/15 06:59:05;;;;;;;41.33;17.92;;;;;;;;;;4969766;28;20033;-63
2022/03/15 07:01:30;;;;;;;42.40;16.00;;;;;;;;;;4970144;28;20522;-62
2022/03/15 07:03:56;;;;;;;42.67;17.83;;;;;;;;;;4971140;28;20344;-63
2022/03/15 07:06:21;;;;;;;45.92;18.98;;;;;;;;;;4969953;28;20479;-62
2022/03/15 07:08:46;;;;;;;39.17;17.35;;;;;;;;;;4969846;28;20356;-62
2022/03/15 07:11:12;;;;;;;38.35;17.85;;;;;;;;;;4970661;28;20052;-62
2022/03/15 07:13:37;;;;;;;49.95;18.63;;;;;;;;;;4969412;28;20545;-62
2022/03/15 07:16:03;;;;;;;48.47;18.58;;;;;;;;;;4951912;28;20121;-62
2022/03/15 07:18:28;;;;;;;44.53;17.58;;;;;;;;;;4969465;28;20586;-62
2022/03/15 07:20:54;;;;;;;49.00;17.98;;;;;;;;;;4969969;28;20475;-62
2022/03/15 07:23:19;;;;;;;41.00;16.40;;;;;;;;;;4969531;28;20056;-63
2022/03/15 07:25:44;;;;;;;43.13;16.27;;;;;;;;;;4969663;28;20400;-62
2022/03/15 07:28:10;;;;;;;39.40;16.42;;;;;;;;;;4969873;28;20076;-63
2022/03/15 07:30:35;;;;;;;41.90;16.05;;;;;;;;;;4969712;28;20448;-62
2022/03/15 07:33:01;;;;;;;46.63;16.85;;;;;;;;;;4971321;28;20021;-63
2022/03/15 07:35:26;;;;;;;43.72;16.02;;;;;;;;;;4969774;28;20416;-63
2022/03/15 07:37:54;;;;;;;45.80;16.65;;;;;;;;;;4970428;28;20108;-62
2022/03/15 07:40:19;;;;;;;43.03;16.50;;;;;;;;;;4969075;28;20436;-62
2022/03/15 07:42:46;;;;;;;39.22;15.27;;;;;;;;;;4969444;28;20472;-63
2022/03/15 07:45:11;;;;;;;43.97;15.45;;;;;;;;;;4969043;28;20380;-63
2022/03/15 07:47:37;;;;;;;39.08;16.30;;;;;;;;;;4969224;28;20054;-63
2022/03/15 07:50:03;;;;;;;41.42;15.77;;;;;;;;;;4969220;28;20025;-63
2022/03/15 07:52:28;;;;;;;39.03;16.55;;;;;;;;;;4969340;28;20033;-62
2022/03/15 07:54:53;;;;;;;43.90;16.73;;;;;;;;;;4968985;28;20021;-63
2022/03/15 07:57:19;;;;;;;38.45;14.93;;;;;;;;;;4968362;28;20084;-63
2022/03/15 07:59:46;;;;;;;40.50;16.30;;;;;;;;;;4969473;28;20140;-63
2022/03/15 08:02:12;;;;;;;44.05;16.15;;;;;;;;;;4969585;28;20448;-62
2022/03/15 08:04:37;;;;;;;39.20;15.80;;;;;;;;;;4969001;28;20060;-63
2022/03/15 08:07:03;;;;;;;44.85;16.65;;;;;;;;;;4968893;28;20452;-62
2022/03/15 08:09:28;;;;;;;39.38;16.40;;;;;;;;;;4968973;28;20349;-63
2022/03/15 08:11:53;;;;;;;46.72;15.65;;;;;;;;;;4968749;28;20087;-62
2022/03/15 08:14:19;;;;;;;43.95;15.88;;;;;;;;;;4969006;28;20341;-63
2022/03/15 08:16:44;;;;;;;33.90;14.85;;;;;;;;;;4969219;28;20491;-62
2022/03/15 08:19:11;;;;;;;47.15;15.93;;;;;;;;;;4968902;28;20328;-62
2022/03/15 08:21:37;;;;;;;48.65;15.18;;;;;;;;;;4968791;28;20427;-62
2022/03/15 08:24:02;;;;;;;39.97;16.20;;;;;;;;;;4968900;28;20348;-62
2022/03/15 08:26:28;;;;;;;42.10;15.07;;;;;;;;;;4969041;28;20126;-63
2022/03/15 08:28:53;;;;;;;40.22;16.17;;;;;;;;;;4968734;28;20429;-62
2022/03/15 08:31:18;;;;;;;42.33;15.93;;;;;;;;;;4968871;28;20341;-63
2022/03/15 08:33:47;;;;;;;37.40;15.68;;;;;;;;;;4968810;28;20029;-63
2022/03/15 08:36:17;;;;;;;39.37;14.60;;;;;;;;;;4968672;28;20429;-63
2022/03/15 08:38:43;;;;;;;40.17;14.13;;;;;;;;;;4969529;28;20091;-63
2022/03/15 08:41:08;;;;;;;41.70;14.52;;;;;;;;;;4968897;28;20440;-63
2022/03/15 08:43:34;;;;;;;35.22;13.50;;;;;;;;;;4968651;28;20051;-63
2022/03/15 08:45:59;;;;;;;38.88;13.10;;;;;;;;;;4968780;28;20352;-63
2022/03/15 08:48:24;;;;;;;34.35;14.45;;;;;;;;;;4967999;28;20560;-63
2022/03/15 08:50:50;;;;;;;35.92;13.20;;;;;;;;;;4968641;28;20425;-62
2022/03/15 08:53:15;;;;;;;40.17;13.68;;;;;;;;;;4969890;28;20653;-63
2022/03/15 08:55:41;;;;;;;33.38;14.70;;;;;;;;;;4968874;28;20452;-63
2022/03/15 08:58:06;;;;;;;40.00;12.88;;;;;;;;;;4968753;28;20349;-63
2022/03/15 09:00:32;;;;;;;35.20;15.05;;;;;;;;;;4968396;28;20373;-63
2022/03/15 09:02:57;;;;;;;40.67;15.05;;;;;;;;;;4968495;28;20427;-62
2022/03/15 09:05:23;;;;;;;31.27;13.00;;;;;;;;;;4968641;28;20400;-63
2022/03/15 09:07:51;;;;;;;34.95;14.18;;;;;;;;;;4969773;28;20455;-63
2022/03/15 09:10:18;;;;;;;29.77;12.80;;;;;;;;;;4971680;28;20349;-62
2022/03/15 09:12:43;;;;;;;29.60;13.13;;;;;;;;;;4971849;28;20052;-62
2022/03/15 09:15:09;;;;;;;30.67;12.77;;;;;;;;;;4954281;28;20625;-63
2022/03/15 09:17:34;;;;;;;33.88;13.57;;;;;;;;;;4972541;28;20448;-62
2022/03/15 09:19:59;;;;;;;32.53;14.43;;;;;;;;;;4971524;28;20452;-63
2022/03/15 09:22:25;;;;;;;30.23;12.65;;;;;;;;;;4973001;28;20342;-63
2022/03/15 09:24:50;;;;;;;32.80;13.45;;;;;;;;;;4971634;28;20033;-63
2022/03/15 09:27:15;;;;;;;31.98;12.45;;;;;;;;;;4971891;28;20440;-63
2022/03/15 09:29:41;;;;;;;31.58;12.52;;;;;;;;;;4971767;28;20429;-63
2022/03/15 09:32:07;;;;;;;26.48;12.23;;;;;;;;;;4971824;28;20532;-63
2022/03/15 09:34:33;;;;;;;30.52;12.32;;;;;;;;;;4972204;28;20329;-63
2022/03/15 09:36:59;;;;;;;29.67;11.77;;;;;;;;;;4971393;28;20320;-63
2022/03/15 09:39:25;;;;;;;28.08;11.60;;;;;;;;;;4971259;28;20151;-63
2022/03/15 09:41:51;;;;;;;31.95;11.48;;;;;;;;;;4971363;28;20337;-63
2022/03/15 09:44:18;;;;;;;29.85;12.35;;;;;;;;;;4953642;28;20432;-63
2022/03/15 09:46:50;;;;;;;27.60;11.15;;;;;;;;;;4972896;28;20855;-63
2022/03/15 09:49:17;;;;;;;33.00;12.20;;;;;;;;;;4970520;28;20476;-64
2022/03/15 09:51:42;;;;;;;28.67;11.13;;;;;;;;;;4972715;28;20334;-63
2022/03/15 09:54:08;;;;;;;33.15;11.82;;;;;;;;;;4970831;28;20369;-63
2022/03/15 09:56:43;;;;;;;25.83;11.20;;;;;;;;;;4971329;28;20422;-63
2022/03/15 09:59:16;;;;;;;27.33;11.40;;;;;;;;;;4972260;28;20409;-63
2022/03/15 10:01:44;;;;;;;20.38;11.20;;;;;;;;;;4971139;28;20060;-63
2022/03/15 10:04:10;;;;;;;26.48;10.95;;;;;;;;;;4970812;28;20405;-62
2022/03/15 10:06:38;;;;;;;26.40;10.95;;;;;;;;;;4971085;28;20447;-63
2022/03/15 10:09:05;;;;;;;24.95;10.15;;;;;;;;;;4972006;28;20393;-63
2022/03/15 10:11:30;;;;;;;20.73;9.43;;;;;;;;;;4970958;28;20457;-63
2022/03/15 10:13:56;;;;;;;30.73;11.00;;;;;;;;;;4971283;28;20444;-63
2022/03/15 10:16:29;;;;;;;25.08;10.20;;;;;;;;;;4970963;28;20375;-63
2022/03/15 10:18:56;;;;;;;20.88;9.90;;;;;;;;;;4970204;28;20441;-63
2022/03/15 10:21:24;;;;;;;28.80;10.93;;;;;;;;;;4971019;28;20345;-64
2022/03/15 10:23:54;;;;;;;23.20;10.15;;;;;;;;;;4970699;28;20440;-63
2022/03/15 10:26:26;;;;;;;25.50;10.02;;;;;;;;;;4972078;28;20119;-63
2022/03/15 10:28:53;;;;;;;25.23;10.63;;;;;;;;;;4971054;28;20321;-64
2022/03/15 10:31:23;;;;;;;23.70;9.95;;;;;;;;;;4970694;28;20314;-63
2022/03/15 10:33:52;;;;;;;23.65;9.90;;;;;;;;;;4970967;28;20298;-63
2022/03/15 10:36:18;;;;;;;21.52;10.70;;;;;;;;;;4970603;28;20464;-63
2022/03/15 10:38:45;;;;;;;25.55;10.50;;;;;;;;;;4970298;28;20487;-63
2022/03/15 10:41:14;;;;;;;26.02;9.95;;;;;;;;;;4970234;28;20413;-63
2022/03/15 10:43:40;;;;;;;23.38;10.32;;;;;;;;;;4971915;28;20407;-63
2022/03/15 10:46:09;;;;;;;20.83;9.45;;;;;;;;;;4970086;28;20033;-63
2022/03/15 10:48:35;;;;;;;24.27;9.68;;;;;;;;;;4969672;28;20077;-63
2022/03/15 10:51:11;;;;;;;24.23;9.80;;;;;;;;;;4970043;28;20361;-63
2022/03/15 10:53:40;;;;;;;26.48;11.32;;;;;;;;;;4970303;28;20034;-63
2022/03/15 10:56:15;;;;;;;;;;;;;;;;;;4970341;28;20524;-63
2022/03/15 10:58:52;;;;;;;18.42;8.35;;;;;;;;;;4969677;28;20299;-63
2022/03/15 11:01:22;;;;;;;19.80;9.15;;;;;;;;;;4969980;28;20459;-63
2022/03/15 11:04:08;;;;;;;21.92;9.75;;;;;;;;;;4969733;28;20441;-62
2022/03/15 11:06:41;;;;;;;20.60;9.82;;;;;;;;;;4969991;28;20025;-63
2022/03/15 11:09:25;;;;;;;24.83;8.43;;;;;;;;;;4969791;28;20055;-63
2022/03/15 11:12:02;;;;;;;20.52;9.23;;;;;;;;;;4969643;28;20378;-63
2022/03/15 11:14:39;;;;;;;23.52;9.85;;;;;;;;;;4969676;28;20429;-63
2022/03/15 11:17:07;;;;;;;18.17;8.20;;;;;;;;;;4969836;28;20389;-62
2022/03/15 11:19:38;;;;;;;18.63;8.50;;;;;;;;;;4969609;28;20349;-63
2022/03/15 11:22:05;;;;;;;18.80;9.07;;;;;;;;;;4969700;28;20033;-63
2022/03/15 11:24:34;;;;;;;25.63;8.57;;;;;;;;;;4951963;28;20351;-64
2022/03/15 11:27:01;;;;;;;21.60;8.60;;;;;;;;;;4969533;28;20444;-63
2022/03/15 11:29:28;;;;;;;20.42;8.40;;;;;;;;;;4970278;28;20025;-63
2022/03/15 11:31:54;;;;;;;20.77;8.80;;;;;;;;;;4970125;28;20408;-63
2022/03/15 11:34:20;;;;;;;19.30;8.23;;;;;;;;;;4971828;28;20518;-63
2022/03/15 11:36:46;;;;;;;22.35;8.65;;;;;;;;;;4969378;28;20418;-63
2022/03/15 11:39:11;;;;;;;18.40;7.70;;;;;;;;;;4969408;28;20337;-63
2022/03/15 11:41:37;;;;;;;15.93;7.88;;;;;;;;;;4969287;28;20033;-63
2022/03/15 11:44:13;;;;;;;17.20;8.30;;;;;;;;;;4951875;28;20306;-63
2022/03/15 11:46:52;;;;;;;20.00;8.75;;;;;;;;;;4951304;28;20294;-62
2022/03/15 11:49:32;;;;;;;17.52;7.47;;;;;;;;;;4968973;28;20548;-64
2022/03/15 11:52:36;;;;;;;16.35;8.65;;;;;;;;;;4952497;28;20084;-63
2022/03/15 11:55:12;;;;;;;15.65;7.80;;;;;;;;;;4903976;28;20453;-63
2022/03/15 11:57:44;;;;;;;18.80;8.63;;;;;;;;;;4969023;28;20472;-64
2022/03/15 12:00:09;;;;;;;19.30;7.90;;;;;;;;;;4969169;28;20535;-63
2022/03/15 12:02:40;;;;;;;18.17;8.48;;;;;;;;;;4969205;28;20409;-63
2022/03/15 12:05:16;;;;;;;23.33;8.23;;;;;;;;;;4969200;28;20352;-63
2022/03/15 12:07:46;;;;;;;20.77;8.40;;;;;;;;;;4968642;28;20405;-63
2022/03/15 12:10:12;;;;;;;;;;;;;;;;;;4952678;28;20437;-63
2022/03/15 12:12:40;;;;;;;16.23;7.85;;;;;;;;;;4950902;28;20276;-63
2022/03/15 12:15:12;;;;;;;16.42;6.82;;;;;;;;;;4969095;28;20389;-63
2022/03/15 12:17:40;;;;;;;17.38;7.63;;;;;;;;;;4968594;28;20090;-63
2022/03/15 12:20:16;;;;;;;16.80;7.50;;;;;;;;;;4969136;28;20029;-63
2022/03/15 12:22:43;;;;;;;19.17;7.50;;;;;;;;;;4968892;28;20642;-63
2022/03/15 12:25:14;;;;;;;17.02;7.63;;;;;;;;;;4969118;28;20025;-63
2022/03/15 12:27:45;;;;;;;15.35;7.10;;;;;;;;;;4951370;28;20376;-64
2022/03/15 12:30:18;;;;;;;16.23;7.70;;;;;;;;;;4968874;28;20490;-63
2022/03/15 12:32:50;;;;;;;14.07;7.07;;;;;;;;;;4968739;28;20424;-63
2022/03/15 12:35:16;;;;;;;12.88;7.15;;;;;;;;;;4968257;28;20460;-63
2022/03/15 12:37:41;;;;;;;13.48;6.93;;;;;;;;;;4968315;28;20441;-63
2022/03/15 12:40:10;;;;;;;15.75;7.32;;;;;;;;;;4969643;28;20021;-63
2022/03/15 12:42:35;;;;;;;15.90;7.15;;;;;;;;;;4970863;28;20455;-63
2022/03/15 12:45:03;;;;;;;19.50;7.32;;;;;;;;;;4972753;28;20441;-63
2022/03/15 12:47:30;;;;;;;15.70;7.18;;;;;;;;;;4971944;28;20065;-63
2022/03/15 12:50:25;;;;;;;16.98;7.47;;;;;;;;;;4973225;28;21063;-63
2022/03/15 12:52:50;;;;;;;17.08;7.00;;;;;;;;;;4937961;28;20329;-63
2022/03/15 12:55:23;;;;;;;18.17;7.93;;;;;;;;;;4971980;28;20356;-63
2022/03/15 12:57:53;;;;;;;19.20;7.90;;;;;;;;;;4972044;28;20321;-62
2022/03/15 13:00:21;;;;;;;13.30;6.72;;;;;;;;;;4972585;28;20512;-63
2022/03/15 13:02:48;;;;;;;13.30;6.72;;;;;;;;;;4974324;28;20321;-63
2022/03/15 13:05:17;;;;;;;15.80;7.18;;;;;;;;;;4972044;28;20055;-62
2022/03/15 13:07:47;;;;;;;13.82;7.38;;;;;;;;;;4973495;28;20375;-63
2022/03/15 13:10:14;;;;;;;15.15;7.30;;;;;;;;;;4971802;28;20433;-63
2022/03/15 13:12:43;;;;;;;17.63;6.85;;;;;;;;;;4971572;28;20360;-63
2022/03/15 13:15:19;;;;;;;15.70;7.68;;;;;;;;;;4973921;28;20440;-63
2022/03/15 13:17:52;;;;;;;13.20;6.75;;;;;;;;;;4972021;28;20443;-63
2022/03/15 13:20:35;;;;;;;11.55;5.75;;;;;;;;;;4973010;28;20436;-63
2022/03/15 13:23:06;;;;;;;14.02;6.45;;;;;;;;;;4972942;28;20096;-63
2022/03/15 13:25:43;;;;;;;16.35;7.22;;;;;;;;;;4972731;28;20440;-62
2022/03/15 13:28:17;;;;;;;15.02;7.28;;;;;;;;;;4971744;28;20441;-63
2022/03/15 13:30:44;;;;;;;11.82;6.20;;;;;;;;;;4971404;28;20080;-63
2022/03/15 13:33:24;;;;;;;15.68;6.38;;;;;;;;;;4972483;28;20364;-63
2022/03/15 13:35:56;;;;;;;15.48;7.07;;;;;;;;;;4971255;28;20026;-63
2022/03/15 13:38:22;;;;;;;14.98;6.70;;;;;;;;;;4971016;28;20506;-63
2022/03/15 13:40:48;;;;;;;16.60;7.43;;;;;;;;;;4972202;28;20363;-63
2022/03/15 13:43:14;;;;;;;14.02;6.18;;;;;;;;;;4953537;28;20401;-63
2022/03/15 13:45:42;;;;;;;15.38;6.55;;;;;;;;;;4972030;28;20375;-62
2022/03/15 13:48:09;;;;;;;13.02;6.85;;;;;;;;;;4971101;28;20478;-63
2022/03/15 13:50:34;;;;;;;14.20;6.15;;;;;;;;;;4971594;28;20025;-63
2022/03/15 13:52:59;;;;;;;13.88;6.38;;;;;;;;;;4971353;28;20456;-63
2022/03/15 13:55:26;;;;;;;13.45;5.93;;;;;;;;;;4970195;28;20333;-62
2022/03/15 13:57:52;;;;;;;12.05;5.88;;;;;;;;;;4970933;28;20345;-62
2022/03/15 14:00:21;;;;;;;15.38;6.88;;;;;;;;;;4970868;28;20056;-62
2022/03/15 14:02:51;;;;;;;;;;;;;;;;;;4971714;28;20437;-63
2022/03/15 14:05:20;;;;;;;11.02;6.43;;;;;;;;;;4971323;28;20328;-64
2022/03/15 14:07:46;;;;;;;13.02;6.18;;;;;;;;;;4970968;28;20341;-63
2022/03/15 14:10:18;;;;;;;13.13;6.28;;;;;;;;;;4970765;28;20026;-62
2022/03/15 14:12:45;;;;;;;13.43;6.15;;;;;;;;;;4970768;28;20421;-63
2022/03/15 14:15:13;;;;;;;17.95;6.35;;;;;;;;;;4970708;28;20403;-62
2022/03/15 14:17:54;;;;;;;13.35;6.00;;;;;;;;;;4971029;28;20441;-63
2022/03/15 14:20:21;;;;;;;13.07;6.55;;;;;;;;;;4971913;28;20383;-63